createdAt,value
2023-02-27T00:00:14.960Z,98709.50
2023-02-27T00:02:46.590Z,98701.97
2023-02-27T00:05:13.831Z,98703.88
2023-02-27T00:07:41.278Z,98697.50
2023-02-27T00:10:10.037Z,98697.50
2023-02-27T00:12:38.526Z,98693.41
2023-02-27T00:15:16.955Z,98690.38
2023-02-27T00:17:44.178Z,98690.75
2023-02-27T00:20:14.138Z,98690.75
2023-02-27T00:22:41.916Z,98675.94
2023-02-27T00:25:09.843Z,98687.63
2023-02-27T00:27:37.154Z,98667.41
2023-02-27T00:30:06.000Z,98669.03
2023-02-27T00:32:33.348Z,98645.56
2023-02-27T00:35:01.270Z,98649.31
2023-02-27T00:37:28.430Z,98641.88
2023-02-27T00:39:55.418Z,98630.69
2023-02-27T00:42:22.422Z,98615.59
2023-02-27T00:44:49.215Z,98620.78
2023-02-27T00:47:16.326Z,98621.38
2023-02-27T00:49:43.215Z,98610.53
2023-02-27T00:52:10.117Z,98602.16
2023-02-27T00:54:37.055Z,98611.16
2023-02-27T00:57:04.013Z,98594.75
2023-02-27T00:59:30.999Z,98601.09
2023-02-27T01:01:58.248Z,98577.41
2023-02-27T01:04:28.112Z,98568.34
2023-02-27T01:06:54.933Z,98571.06
2023-02-27T01:09:22.082Z,98562.38
2023-02-27T01:11:48.964Z,98571.78
2023-02-27T01:14:15.778Z,98554.19
2023-02-27T01:16:45.653Z,98568.56
2023-02-27T01:19:12.524Z,98549.38
2023-02-27T01:21:42.090Z,98551.78
2023-02-27T01:24:09.979Z,98564.84
2023-02-27T01:26:37.214Z,98562.94
2023-02-27T01:29:06.329Z,98561.78
2023-02-27T01:31:33.697Z,98562.72
2023-02-27T01:34:00.609Z,98558.28
2023-02-27T01:36:27.540Z,98555.59
2023-02-27T01:38:54.483Z,98556.59
2023-02-27T01:41:21.330Z,98552.88
2023-02-27T01:44:03.100Z,98570.53
2023-02-27T01:46:31.080Z,98579.88
2023-02-27T01:49:04.176Z,98573.16
2023-02-27T01:51:34.593Z,98573.59
2023-02-27T01:54:03.684Z,98582.63
2023-02-27T01:56:32.474Z,98581.03
2023-02-27T01:59:06.306Z,98594.59
2023-02-27T02:01:34.963Z,98596.94
2023-02-27T02:04:22.592Z,98607.72
2023-02-27T02:06:54.594Z,98593.94
2023-02-27T02:09:22.416Z,98599.19
2023-02-27T02:11:49.551Z,98613.75
2023-02-27T02:14:18.039Z,98611.06
2023-02-27T02:17:03.168Z,98624.19
2023-02-27T02:19:51.513Z,98628.22
2023-02-27T02:22:36.534Z,98635.22
2023-02-27T02:25:28.358Z,98615.56
2023-02-27T02:28:13.835Z,98630.53
2023-02-27T02:30:59.409Z,98634.47
2023-02-27T02:33:26.148Z,98633.06
2023-02-27T02:36:30.567Z,98641.38
2023-02-27T02:39:09.211Z,98644.88
2023-02-27T02:41:45.272Z,98646.94
2023-02-27T02:44:14.976Z,98647.38
2023-02-27T02:47:02.263Z,98651.38
2023-02-27T02:49:41.074Z,98659.16
2023-02-27T02:52:10.836Z,98662.13
2023-02-27T02:54:54.547Z,98678.22
2023-02-27T02:57:31.323Z,98663.56
2023-02-27T03:00:15.598Z,98683.31
2023-02-27T03:02:51.480Z,98680.00
2023-02-27T03:05:34.744Z,98667.16
2023-02-27T03:08:07.167Z,98681.63
2023-02-27T03:10:36.391Z,98677.06
2023-02-27T03:13:12.302Z,98676.44
2023-02-27T03:15:48.273Z,98664.75
2023-02-27T03:18:20.873Z,98676.19
2023-02-27T03:20:56.028Z,98672.78
2023-02-27T03:23:51.853Z,98678.66
2023-02-27T03:26:23.262Z,98682.06
2023-02-27T03:29:04.350Z,98678.13
2023-02-27T03:31:52.476Z,98680.91
2023-02-27T03:34:29.218Z,98679.88
2023-02-27T03:37:39.629Z,98687.63
2023-02-27T03:40:25.818Z,98681.84
2023-02-27T03:43:07.849Z,98690.41
2023-02-27T03:46:02.215Z,98677.03
2023-02-27T03:48:29.600Z,98676.56
2023-02-27T03:50:56.884Z,98684.53
2023-02-27T03:53:40.054Z,98681.75
2023-02-27T03:56:09.151Z,98668.53
2023-02-27T03:58:36.366Z,98671.13
2023-02-27T04:01:03.226Z,98675.22
2023-02-27T04:03:34.421Z,98678.81
2023-02-27T04:06:21.746Z,98672.63
2023-02-27T04:09:03.394Z,98691.06
2023-02-27T04:11:50.254Z,98689.63
2023-02-27T04:14:24.809Z,98688.38
2023-02-27T04:17:10.300Z,98717.56
2023-02-27T04:19:49.290Z,98717.25
2023-02-27T04:22:28.110Z,98726.38
2023-02-27T04:25:16.866Z,98733.06
2023-02-27T04:27:49.701Z,98728.31
2023-02-27T04:30:28.672Z,98744.06
2023-02-27T04:33:10.952Z,98716.00
2023-02-27T04:35:51.072Z,98715.88
2023-02-27T04:38:51.612Z,98741.81
2023-02-27T04:41:22.328Z,98752.44
2023-02-27T04:43:52.050Z,98759.94
2023-02-27T04:46:22.700Z,98754.22
2023-02-27T04:49:08.928Z,98739.06
2023-02-27T04:51:44.877Z,98767.13
2023-02-27T04:54:16.462Z,98756.09
2023-02-27T04:56:53.507Z,98751.28
2023-02-27T04:59:28.482Z,98758.19
2023-02-27T05:02:30.543Z,98774.53
2023-02-27T05:05:01.412Z,98774.97
2023-02-27T05:07:37.565Z,98772.09
2023-02-27T05:10:08.325Z,98781.28
2023-02-27T05:12:46.411Z,98791.25
2023-02-27T05:15:25.586Z,98801.63
2023-02-27T05:18:13.615Z,98805.66
2023-02-27T05:20:54.052Z,98806.91
2023-02-27T05:23:45.853Z,98838.47
2023-02-27T05:26:12.597Z,98855.53
2023-02-27T05:28:46.785Z,98843.06
2023-02-27T05:31:35.099Z,98868.41
2023-02-27T05:34:22.620Z,98922.19
2023-02-27T05:37:14.156Z,98966.84
2023-02-27T05:39:42.996Z,98976.81
2023-02-27T05:42:19.846Z,98987.28
2023-02-27T05:44:54.895Z,99002.38
2023-02-27T05:47:25.533Z,99035.91
2023-02-27T05:50:02.144Z,99052.69
2023-02-27T05:52:30.943Z,99075.00
2023-02-27T05:55:24.550Z,99107.84
2023-02-27T05:57:59.982Z,99116.56
2023-02-27T06:00:39.188Z,99113.88
2023-02-27T06:03:06.295Z,99129.34
2023-02-27T06:05:33.774Z,99146.50
2023-02-27T06:08:00.905Z,99146.78
2023-02-27T06:10:27.984Z,99156.84
2023-02-27T06:12:54.801Z,99164.34
2023-02-27T06:15:23.061Z,99176.72
2023-02-27T06:17:49.890Z,99185.63
2023-02-27T06:20:16.960Z,99198.38
2023-02-27T06:22:43.810Z,99194.50
2023-02-27T06:25:10.674Z,99187.28
2023-02-27T06:27:37.761Z,99177.72
2023-02-27T06:30:07.462Z,99164.66
2023-02-27T06:32:34.630Z,99171.91
2023-02-27T06:35:01.694Z,99174.78
2023-02-27T06:37:28.466Z,99180.44
2023-02-27T06:39:55.285Z,99190.44
2023-02-27T06:42:22.057Z,99167.16
2023-02-27T06:44:48.893Z,99197.88
2023-02-27T06:47:15.803Z,99198.19
2023-02-27T06:49:42.603Z,99214.84
2023-02-27T06:52:09.360Z,99202.63
2023-02-27T06:54:36.150Z,99209.50
2023-02-27T06:57:02.955Z,99201.50
2023-02-27T06:59:29.725Z,99212.88
2023-02-27T07:01:56.536Z,99222.72
2023-02-27T07:04:23.403Z,99238.22
2023-02-27T07:07:35.533Z,99257.03
2023-02-27T07:09:37.334Z,99267.31
2023-02-27T07:12:05.391Z,99293.06
2023-02-27T07:14:32.565Z,99291.56
2023-02-27T07:17:03.318Z,99276.31
2023-02-27T07:19:35.953Z,99281.19
2023-02-27T07:22:03.755Z,99283.81
2023-02-27T07:24:30.471Z,99270.88
2023-02-27T07:26:57.296Z,99272.81
2023-02-27T07:29:24.067Z,99265.28
2023-02-27T07:31:50.961Z,99259.09
2023-02-27T07:34:17.920Z,99241.97
2023-02-27T07:36:44.807Z,99252.97
2023-02-27T07:39:14.910Z,99254.59
2023-02-27T07:41:41.746Z,99235.47
2023-02-27T07:44:16.420Z,99250.25
2023-02-27T07:46:44.741Z,99265.78
2023-02-27T07:49:11.735Z,99263.34
2023-02-27T07:51:38.675Z,99285.19
2023-02-27T07:54:05.491Z,99278.78
2023-02-27T07:56:32.361Z,99295.47
2023-02-27T07:58:59.232Z,99286.69
2023-02-27T08:01:26.015Z,99293.13
2023-02-27T08:03:53.134Z,99287.25
2023-02-27T08:06:20.049Z,99299.81
2023-02-27T08:08:46.884Z,99301.31
2023-02-27T08:11:13.728Z,99303.75
2023-02-27T08:14:00.571Z,99312.50
2023-02-27T08:16:27.699Z,99327.22
2023-02-27T08:18:54.682Z,99334.41
2023-02-27T08:21:21.764Z,99357.69
2023-02-27T08:23:48.641Z,99373.53
2023-02-27T08:26:15.564Z,99372.03
2023-02-27T08:28:42.787Z,99368.88
2023-02-27T08:31:09.671Z,99378.22
2023-02-27T08:33:36.477Z,99375.66
2023-02-27T08:36:03.516Z,99390.16
2023-02-27T08:38:30.403Z,99387.41
2023-02-27T08:40:57.303Z,99374.91
2023-02-27T08:43:24.252Z,99388.50
2023-02-27T08:45:51.770Z,99398.81
2023-02-27T08:48:18.829Z,99386.66
2023-02-27T08:50:46.931Z,99388.28
2023-02-27T08:53:14.098Z,99399.66
2023-02-27T08:55:41.303Z,99407.91
2023-02-27T08:58:08.630Z,99397.88
2023-02-27T09:00:35.891Z,99404.03
2023-02-27T09:03:02.780Z,99421.56
2023-02-27T09:05:29.603Z,99413.78
2023-02-27T09:07:56.360Z,99404.38
2023-02-27T09:10:23.207Z,99393.50
2023-02-27T09:12:50.061Z,99396.75
2023-02-27T09:15:17.231Z,99409.22
2023-02-27T09:17:44.213Z,99420.72
2023-02-27T09:20:12.218Z,99425.31
2023-02-27T09:22:39.466Z,99429.22
2023-02-27T09:25:06.967Z,99439.75
2023-02-27T09:27:34.728Z,99427.53
2023-02-27T09:30:01.690Z,99450.91
2023-02-27T09:32:28.843Z,99446.38
2023-02-27T09:34:55.777Z,99458.19
2023-02-27T09:37:25.039Z,99462.94
2023-02-27T09:39:52.010Z,99465.19
2023-02-27T09:42:25.586Z,99471.53
2023-02-27T09:44:56.223Z,99483.69
2023-02-27T09:47:25.995Z,99470.84
2023-02-27T09:50:06.462Z,99477.13
2023-02-27T09:52:36.463Z,99487.56
2023-02-27T09:55:08.332Z,99494.78
2023-02-27T09:57:56.474Z,99504.63
2023-02-27T10:00:25.909Z,99501.75
2023-02-27T10:03:10.287Z,99476.31
2023-02-27T10:05:48.023Z,99492.66
2023-02-27T10:08:41.619Z,99502.44
2023-02-27T10:11:14.803Z,99498.44
2023-02-27T10:13:56.324Z,99489.06
2023-02-27T10:16:24.213Z,99516.44
2023-02-27T10:19:01.626Z,99521.09
2023-02-27T10:21:36.996Z,99513.16
2023-02-27T10:24:31.703Z,99528.22
2023-02-27T10:27:01.387Z,99513.34
2023-02-27T10:29:30.116Z,99514.63
2023-02-27T10:32:06.783Z,99502.63
2023-02-27T10:34:34.873Z,99507.03
2023-02-27T10:37:05.445Z,99508.78
2023-02-27T10:39:54.310Z,99506.53
2023-02-27T10:42:24.240Z,99513.00
2023-02-27T10:45:16.367Z,99512.00
2023-02-27T10:47:44.201Z,99517.09
2023-02-27T10:50:44.691Z,99504.25
2023-02-27T10:53:37.843Z,99507.81
2023-02-27T10:56:08.477Z,99499.25
2023-02-27T10:58:37.240Z,99499.25
2023-02-27T11:01:12.964Z,99481.09
2023-02-27T11:03:43.110Z,99501.69
2023-02-27T11:06:24.702Z,99505.91
2023-02-27T11:09:10.109Z,99503.00
2023-02-27T11:11:37.969Z,99491.53
2023-02-27T11:14:28.082Z,99500.97
2023-02-27T11:16:57.745Z,99500.31
2023-02-27T11:19:29.947Z,99507.63
2023-02-27T11:22:16.308Z,99507.31
2023-02-27T11:24:43.359Z,99512.94
2023-02-27T11:27:29.081Z,99503.06
2023-02-27T11:30:00.364Z,99504.88
2023-02-27T11:32:37.268Z,99503.72
2023-02-27T11:35:05.667Z,99505.81
2023-02-27T11:37:36.798Z,99509.06
2023-02-27T11:40:15.600Z,99514.94
2023-02-27T11:42:47.600Z,99507.44
2023-02-27T11:46:04.860Z,99509.56
2023-02-27T11:49:02.986Z,99502.25
2023-02-27T11:51:32.951Z,99507.75
2023-02-27T11:54:30.020Z,99504.84
2023-02-27T11:57:04.375Z,99496.72
2023-02-27T11:59:47.962Z,99494.19
2023-02-27T12:02:22.524Z,99501.50
2023-02-27T12:04:55.459Z,99490.00
2023-02-27T12:07:28.073Z,99487.06
2023-02-27T12:10:04.703Z,99498.56
2023-02-27T12:12:40.974Z,99508.56
2023-02-27T12:15:30.089Z,99503.34
2023-02-27T12:18:05.441Z,99516.72
2023-02-27T12:20:37.920Z,99511.31
2023-02-27T12:23:31.493Z,99515.81
2023-02-27T12:26:08.399Z,99505.38
2023-02-27T12:29:04.875Z,99478.25
2023-02-27T12:31:36.422Z,99501.75
2023-02-27T12:34:15.099Z,99503.22
2023-02-27T12:36:42.115Z,99507.72
2023-02-27T12:39:23.766Z,99512.38
2023-02-27T12:42:18.735Z,99502.53
2023-02-27T12:45:17.034Z,99512.88
2023-02-27T12:47:55.810Z,99497.78
2023-02-27T12:50:25.517Z,99508.22
2023-02-27T12:53:23.361Z,99506.91
2023-02-27T12:55:59.794Z,99507.03
2023-02-27T12:58:40.345Z,99503.72
2023-02-27T13:01:26.646Z,99505.34
2023-02-27T13:04:16.964Z,99507.50
2023-02-27T13:06:55.489Z,99500.53
2023-02-27T13:09:32.610Z,99506.44
2023-02-27T13:12:21.122Z,99505.75
2023-02-27T13:14:55.406Z,99512.38
2023-02-27T13:17:37.752Z,99517.94
2023-02-27T13:20:40.178Z,99503.72
2023-02-27T13:23:24.460Z,99515.34
2023-02-27T13:25:54.984Z,99520.25
2023-02-27T13:28:28.090Z,99516.13
2023-02-27T13:31:12.687Z,99515.72
2023-02-27T13:33:45.545Z,99511.59
2023-02-27T13:36:39.119Z,99519.53
2023-02-27T13:39:40.946Z,99512.88
2023-02-27T13:42:26.561Z,99523.97
2023-02-27T13:44:58.933Z,99539.97
2023-02-27T13:47:48.837Z,99526.88
2023-02-27T13:50:18.749Z,99530.44
2023-02-27T13:52:46.981Z,99515.81
2023-02-27T13:55:34.877Z,99517.13
2023-02-27T13:58:03.931Z,99518.75
2023-02-27T14:00:34.164Z,99520.16
2023-02-27T14:03:32.193Z,99516.38
2023-02-27T14:06:03.788Z,99519.31
2023-02-27T14:08:46.950Z,99509.22
2023-02-27T14:11:22.781Z,99522.31
2023-02-27T14:13:54.680Z,99534.34
2023-02-27T14:16:44.107Z,99532.88
2023-02-27T14:19:17.271Z,99538.06
2023-02-27T14:21:54.459Z,99529.59
2023-02-27T14:25:01.088Z,99515.00
2023-02-27T14:27:39.341Z,99502.72
2023-02-27T14:30:10.158Z,99505.53
2023-02-27T14:32:37.959Z,99525.66
2023-02-27T14:35:06.602Z,99514.75
2023-02-27T14:37:36.433Z,99522.38
2023-02-27T14:40:06.284Z,99518.66
2023-02-27T14:42:51.228Z,99530.03
2023-02-27T14:45:25.161Z,99537.66
2023-02-27T14:47:53.194Z,99529.53
2023-02-27T14:50:34.154Z,99544.66
2023-02-27T14:53:06.990Z,99554.88
2023-02-27T14:55:35.981Z,99539.78
2023-02-27T14:58:19.076Z,99544.81
2023-02-27T15:01:02.035Z,99559.94
2023-02-27T15:03:59.275Z,99558.31
2023-02-27T15:06:42.813Z,99563.34
2023-02-27T15:09:23.930Z,99570.47
2023-02-27T15:12:03.605Z,99597.94
2023-02-27T15:14:37.621Z,99589.16
2023-02-27T15:17:14.816Z,99602.81
2023-02-27T15:19:51.273Z,99591.44
2023-02-27T15:22:37.675Z,99600.06
2023-02-27T15:25:08.096Z,99593.72
2023-02-27T15:27:37.630Z,99589.81
2023-02-27T15:30:05.267Z,99595.66
2023-02-27T15:32:35.861Z,99594.34
2023-02-27T15:35:12.666Z,99632.56
2023-02-27T15:37:40.381Z,99635.16
2023-02-27T15:40:16.493Z,99635.63
2023-02-27T15:42:44.751Z,99634.94
2023-02-27T15:45:19.867Z,99636.88
2023-02-27T15:47:47.621Z,99628.44
2023-02-27T15:50:17.278Z,99630.53
2023-02-27T15:52:52.702Z,99648.91
2023-02-27T15:55:27.398Z,99652.75
2023-02-27T15:58:02.811Z,99654.84
2023-02-27T16:00:34.308Z,99661.00
2023-02-27T16:03:01.402Z,99649.16
2023-02-27T16:05:34.628Z,99641.50
2023-02-27T16:08:02.946Z,99650.63
2023-02-27T16:10:37.824Z,99657.09
2023-02-27T16:13:41.202Z,99646.84
2023-02-27T16:16:35.409Z,99651.69
2023-02-27T16:19:28.213Z,99643.97
2023-02-27T16:22:07.201Z,99643.66
2023-02-27T16:24:34.269Z,99637.72
2023-02-27T16:27:01.944Z,99620.97
2023-02-27T16:29:34.530Z,99623.66
2023-02-27T16:32:01.923Z,99635.50
2023-02-27T16:34:44.608Z,99657.41
2023-02-27T16:37:24.764Z,99674.97
2023-02-27T16:39:52.366Z,99683.03
2023-02-27T16:42:19.370Z,99679.41
2023-02-27T16:44:46.463Z,99719.31
2023-02-27T16:47:13.399Z,99743.13
2023-02-27T16:49:40.565Z,99741.28
2023-02-27T16:52:11.061Z,99734.34
2023-02-27T16:54:37.993Z,99712.47
2023-02-27T16:57:05.140Z,99698.50
2023-02-27T16:59:39.181Z,99718.81
2023-02-27T17:02:11.230Z,99723.69
2023-02-27T17:04:38.049Z,99703.72
2023-02-27T17:07:06.654Z,99720.06
2023-02-27T17:09:33.631Z,99706.31
2023-02-27T17:12:00.434Z,99720.03
2023-02-27T17:14:27.347Z,99727.91
2023-02-27T17:16:54.214Z,99746.28
2023-02-27T17:19:22.263Z,99756.28
2023-02-27T17:21:49.283Z,99751.59
2023-02-27T17:24:16.346Z,99761.28
2023-02-27T17:26:43.303Z,99772.69
2023-02-27T17:29:10.253Z,99775.88
2023-02-27T17:31:37.200Z,99769.88
2023-02-27T17:34:05.545Z,99772.94
2023-02-27T17:36:32.536Z,99789.16
2023-02-27T17:39:02.830Z,99796.06
2023-02-27T17:41:31.521Z,99784.22
2023-02-27T17:43:59.574Z,99785.63
2023-02-27T17:46:28.378Z,99770.97
2023-02-27T17:49:00.021Z,99770.25
2023-02-27T17:51:28.084Z,99809.66
2023-02-27T17:53:55.456Z,99836.16
2023-02-27T17:56:22.384Z,99823.69
2023-02-27T17:58:49.601Z,99812.16
2023-02-27T18:01:21.554Z,99824.41
2023-02-27T18:03:49.485Z,99805.25
2023-02-27T18:06:17.083Z,99824.81
2023-02-27T18:08:44.192Z,99805.63
2023-02-27T18:11:12.851Z,99812.09
2023-02-27T18:13:40.793Z,99809.56
2023-02-27T18:22:33.662Z,99822.50
2023-02-27T18:25:01.041Z,99828.22
2023-02-27T18:27:28.180Z,99848.81
2023-02-27T18:29:57.739Z,99836.91
2023-02-27T18:32:25.070Z,99847.38
2023-02-27T18:34:53.507Z,99819.00
2023-02-27T18:37:20.595Z,99855.56
2023-02-27T18:39:47.846Z,99877.19
2023-02-27T18:42:14.603Z,99856.38
2023-02-27T18:44:42.175Z,99837.28
2023-02-27T18:47:09.772Z,99835.06
2023-02-27T18:49:36.786Z,99820.66
2023-02-27T18:52:04.033Z,99870.88
2023-02-27T18:54:31.063Z,99872.50
2023-02-27T18:56:57.856Z,99869.91
2023-02-27T18:59:24.912Z,99863.22
2023-02-27T19:01:51.772Z,99878.69
2023-02-27T19:04:18.660Z,99869.91
2023-02-27T19:06:45.683Z,99879.56
2023-02-27T19:09:16.257Z,99875.03
2023-02-27T19:11:47.236Z,99894.41
2023-02-27T19:14:16.080Z,99889.16
2023-02-27T19:16:43.474Z,99882.09
2023-02-27T19:19:12.034Z,99885.00
2023-02-27T19:21:39.591Z,99873.69
2023-02-27T19:24:07.663Z,99882.84
2023-02-27T19:26:34.817Z,99875.31
2023-02-27T19:29:02.135Z,99896.56
2023-02-27T19:31:29.158Z,99895.38
2023-02-27T19:33:56.335Z,99883.66
2023-02-27T19:36:25.305Z,99904.75
2023-02-27T19:38:52.829Z,99909.13
2023-02-27T19:41:20.794Z,99887.13
2023-02-27T19:43:48.744Z,99893.59
2023-02-27T19:46:18.783Z,99869.53
2023-02-27T19:48:46.548Z,99913.56
2023-02-27T19:51:14.820Z,99921.19
2023-02-27T19:53:45.858Z,99915.44
2023-02-27T19:56:17.510Z,99912.94
2023-02-27T19:58:45.936Z,99935.44
2023-02-27T20:01:12.939Z,99929.34
2023-02-27T20:03:43.751Z,99920.59
2023-02-27T20:06:21.768Z,99929.72
2023-02-27T20:08:49.028Z,99939.91
2023-02-27T20:11:17.593Z,99946.34
2023-02-27T20:13:45.212Z,99948.22
2023-02-27T20:16:14.767Z,99935.53
2023-02-27T20:18:42.762Z,99952.53
2023-02-27T20:21:16.528Z,99942.66
2023-02-27T20:23:46.287Z,99938.84
2023-02-27T20:26:17.073Z,99932.78
2023-02-27T20:28:45.098Z,99910.41
2023-02-27T20:31:13.138Z,99941.00
2023-02-27T20:33:41.026Z,99938.34
2023-02-27T20:36:10.116Z,99947.41
2023-02-27T20:38:39.219Z,99952.53
2023-02-27T20:41:07.945Z,99956.63
2023-02-27T20:43:37.644Z,99958.91
2023-02-27T20:46:07.379Z,99980.41
2023-02-27T20:48:34.671Z,99977.41
2023-02-27T20:51:06.434Z,99975.66
2023-02-27T20:53:35.344Z,99968.00
2023-02-27T20:56:02.340Z,99970.88
2023-02-27T20:58:29.371Z,99978.53
2023-02-27T21:00:56.187Z,99976.13
2023-02-27T21:03:23.226Z,100007.19
2023-02-27T21:05:51.407Z,100006.97
2023-02-27T21:08:18.838Z,99999.88
2023-02-27T21:10:51.053Z,99994.81
2023-02-27T21:13:18.853Z,100007.19
2023-02-27T21:15:46.516Z,100015.09
2023-02-27T21:18:13.752Z,100025.22
2023-02-27T21:20:44.732Z,100021.47
2023-02-27T21:23:12.178Z,100018.78
2023-02-27T21:25:43.183Z,100009.72
2023-02-27T21:28:11.148Z,100021.19
2023-02-27T21:30:38.167Z,100037.94
2023-02-27T21:33:05.334Z,100038.28
2023-02-27T21:35:32.464Z,100034.19
2023-02-27T21:37:59.724Z,100008.41
2023-02-27T21:40:26.535Z,99999.66
2023-02-27T21:42:53.785Z,100021.00
2023-02-27T21:45:21.218Z,100022.47
2023-02-27T21:47:48.517Z,100024.84
2023-02-27T21:50:15.528Z,100025.72
2023-02-27T21:52:43.460Z,100025.00
2023-02-27T21:55:11.552Z,100027.72
2023-02-27T21:57:40.171Z,100037.66
2023-02-27T22:00:11.495Z,100041.03
2023-02-27T22:02:39.476Z,100048.44
2023-02-27T22:05:07.121Z,100056.09
2023-02-27T22:07:34.019Z,100057.97
2023-02-27T22:10:00.822Z,100048.97
2023-02-27T22:12:27.825Z,100053.63
2023-02-27T22:14:55.002Z,100056.19
2023-02-27T22:17:21.894Z,100054.78
2023-02-27T22:19:48.696Z,100052.63
2023-02-27T22:22:15.528Z,100057.91
2023-02-27T22:24:42.363Z,100078.22
2023-02-27T22:27:09.453Z,100074.97
2023-02-27T22:29:38.538Z,100068.66
2023-02-27T22:32:06.653Z,100056.66
2023-02-27T22:34:33.482Z,100075.78
2023-02-27T22:37:00.619Z,100077.22
2023-02-27T22:39:27.361Z,100078.31
2023-02-27T22:41:56.484Z,100083.22
2023-02-27T22:44:23.880Z,100033.78
2023-02-27T22:46:50.902Z,100070.75
2023-02-27T22:49:20.934Z,100073.50
2023-02-27T22:51:50.767Z,100089.78
2023-02-27T22:54:20.386Z,100088.13
2023-02-27T22:56:50.237Z,100080.47
2023-02-27T22:59:17.168Z,100087.56
2023-02-27T23:01:44.048Z,100079.94
2023-02-27T23:04:12.203Z,100087.63
2023-02-27T23:06:40.664Z,100085.97
2023-02-27T23:09:11.284Z,100095.31
2023-02-27T23:11:38.416Z,100090.94
2023-02-27T23:14:05.379Z,100088.75
2023-02-27T23:16:32.511Z,100098.06
2023-02-27T23:19:00.340Z,100091.56
2023-02-27T23:21:34.500Z,100092.66
2023-02-27T23:24:06.949Z,100088.84
2023-02-27T23:26:38.737Z,100086.38
2023-02-27T23:29:06.875Z,100085.03
2023-02-27T23:31:35.813Z,100091.84
2023-02-27T23:34:06.049Z,100078.16
2023-02-27T23:36:34.893Z,100092.69
2023-02-27T23:39:05.667Z,100100.91
2023-02-27T23:41:33.150Z,100102.00
2023-02-27T23:44:18.650Z,100109.69
2023-02-27T23:46:45.498Z,100103.94
2023-02-27T23:49:12.415Z,100110.50
2023-02-27T23:51:39.705Z,100094.38
2023-02-27T23:54:06.549Z,100092.75
2023-02-27T23:56:34.300Z,100103.69
2023-02-27T23:59:03.831Z,100115.47
